sensor_id;sensor_type;location;lat;lon;timestamp;temperature;humidity
24049;DHT22;12250;50.956;4.746;2022-12-31T00:00:08;14.50;99.90
24049;DHT22;12250;50.956;4.746;2022-12-31T00:02:34;14.40;99.90
24049;DHT22;12250;50.956;4.746;2022-12-31T00:05:00;14.30;99.90
24049;DHT22;12250;50.956;4.746;2022-12-31T00:07:26;14.40;99.90
24049;DHT22;12250;50.956;4.746;2022-12-31T00:09:52;14.40;99.90
24049;DHT22;12250;50.956;4.746;2022-12-31T00:12:17;14.30;99.90
24049;DHT22;12250;50.956;4.746;2022-12-31T00:14:43;14.40;99.90
24049;DHT22;12250;50.956;4.746;2022-12-31T00:17:09;14.40;99.90
24049;DHT22;12250;50.956;4.746;2022-12-31T00:19:34;14.40;99.90
24049;DHT22;12250;50.956;4.746;2022-12-31T00:22:00;14.50;99.90
24049;DHT22;12250;50.956;4.746;2022-12-31T00:24:26;14.50;99.90
24049;DHT22;12250;50.956;4.746;2022-12-31T00:26:55;14.50;99.90
24049;DHT22;12250;50.956;4.746;2022-12-31T00:29:21;14.50;99.90
24049;DHT22;12250;50.956;4.746;2022-12-31T00:31:46;14.60;99.90
24049;DHT22;12250;50.956;4.746;2022-12-31T00:34:12;14.60;99.90
24049;DHT22;12250;50.956;4.746;2022-12-31T00:36:38;14.60;99.90
24049;DHT22;12250;50.956;4.746;2022-12-31T00:39:06;14.60;99.90
24049;DHT22;12250;50.956;4.746;2022-12-31T00:41:32;14.70;99.90
24049;DHT22;12250;50.956;4.746;2022-12-31T00:43:59;14.70;99.90
24049;DHT22;12250;50.956;4.746;2022-12-31T00:46:25;14.80;99.90
24049;DHT22;12250;50.956;4.746;2022-12-31T00:48:51;14.70;99.90
24049;DHT22;12250;50.956;4.746;2022-12-31T00:51:18;14.80;99.90
24049;DHT22;12250;50.956;4.746;2022-12-31T00:53:45;14.70;99.90
24049;DHT22;12250;50.956;4.746;2022-12-31T00:56:13;14.80;99.90
24049;DHT22;12250;50.956;4.746;2022-12-31T00:58:40;14.70;99.90
24049;DHT22;12250;50.956;4.746;2022-12-31T01:01:15;14.70;99.90
24049;DHT22;12250;50.956;4.746;2022-12-31T01:03:41;14.80;99.90
24049;DHT22;12250;50.956;4.746;2022-12-31T01:06:07;14.80;99.90
24049;DHT22;12250;50.956;4.746;2022-12-31T01:08:34;14.80;99.90
24049;DHT22;12250;50.956;4.746;2022-12-31T01:11:00;14.80;99.90
24049;DHT22;12250;50.956;4.746;2022-12-31T01:13:58;14.90;99.90
24049;DHT22;12250;50.956;4.746;2022-12-31T01:16:33;14.90;99.90
24049;DHT22;12250;50.956;4.746;2022-12-31T01:19:00;14.90;99.90
24049;DHT22;12250;50.956;4.746;2022-12-31T01:21:27;14.90;99.90
24049;DHT22;12250;50.956;4.746;2022-12-31T01:23:53;15.00;99.90
24049;DHT22;12250;50.956;4.746;2022-12-31T01:26:19;15.10;99.90
24049;DHT22;12250;50.956;4.746;2022-12-31T01:28:45;15.20;99.90
24049;DHT22;12250;50.956;4.746;2022-12-31T01:31:13;15.20;99.90
24049;DHT22;12250;50.956;4.746;2022-12-31T01:33:39;15.20;99.90
24049;DHT22;12250;50.956;4.746;2022-12-31T01:36:11;15.30;99.90
24049;DHT22;12250;50.956;4.746;2022-12-31T01:38:39;15.30;99.90
24049;DHT22;12250;50.956;4.746;2022-12-31T01:41:05;15.30;99.90
24049;DHT22;12250;50.956;4.746;2022-12-31T01:43:49;15.30;99.90
24049;DHT22;12250;50.956;4.746;2022-12-31T01:51:47;15.50;99.90
24049;DHT22;12250;50.956;4.746;2022-12-31T01:54:15;15.50;99.90
24049;DHT22;12250;50.956;4.746;2022-12-31T01:56:44;15.50;99.90
24049;DHT22;12250;50.956;4.746;2022-12-31T01:59:12;15.50;99.90
24049;DHT22;12250;50.956;4.746;2022-12-31T02:01:40;15.30;99.90
24049;DHT22;12250;50.956;4.746;2022-12-31T02:04:11;15.20;99.90
24049;DHT22;12250;50.956;4.746;2022-12-31T02:06:41;15.10;99.90
24049;DHT22;12250;50.956;4.746;2022-12-31T02:09:08;15.00;99.90
24049;DHT22;12250;50.956;4.746;2022-12-31T02:11:35;15.00;99.90
24049;DHT22;12250;50.956;4.746;2022-12-31T02:14:08;15.00;99.90
24049;DHT22;12250;50.956;4.746;2022-12-31T02:30:09;15.30;99.90
24049;DHT22;12250;50.956;4.746;2022-12-31T02:32:47;15.30;99.90
24049;DHT22;12250;50.956;4.746;2022-12-31T02:35:32;15.30;99.90
24049;DHT22;12250;50.956;4.746;2022-12-31T02:38:08;15.20;99.90
24049;DHT22;12250;50.956;4.746;2022-12-31T02:40:36;15.30;99.90
24049;DHT22;12250;50.956;4.746;2022-12-31T02:43:02;15.30;99.90
24049;DHT22;12250;50.956;4.746;2022-12-31T02:45:32;15.30;99.90
24049;DHT22;12250;50.956;4.746;2022-12-31T02:53:42;15.30;99.90
24049;DHT22;12250;50.956;4.746;2022-12-31T02:56:36;15.40;99.90
24049;DHT22;12250;50.956;4.746;2022-12-31T02:59:08;15.30;99.90
24049;DHT22;12250;50.956;4.746;2022-12-31T03:02:20;15.30;99.90
24049;DHT22;12250;50.956;4.746;2022-12-31T03:04:55;15.30;99.90
24049;DHT22;12250;50.956;4.746;2022-12-31T03:07:26;15.20;99.90
24049;DHT22;12250;50.956;4.746;2022-12-31T03:09:52;15.20;99.90
24049;DHT22;12250;50.956;4.746;2022-12-31T03:12:20;15.20;99.90
24049;DHT22;12250;50.956;4.746;2022-12-31T03:15:05;15.30;99.90
24049;DHT22;12250;50.956;4.746;2022-12-31T03:17:32;15.20;99.90
24049;DHT22;12250;50.956;4.746;2022-12-31T03:19:58;15.20;99.90
24049;DHT22;12250;50.956;4.746;2022-12-31T03:22:43;15.20;99.90
24049;DHT22;12250;50.956;4.746;2022-12-31T03:25:13;15.30;99.90
24049;DHT22;12250;50.956;4.746;2022-12-31T03:28:07;15.30;99.90
24049;DHT22;12250;50.956;4.746;2022-12-31T03:30:34;15.30;99.90
24049;DHT22;12250;50.956;4.746;2022-12-31T03:33:00;15.30;99.90
24049;DHT22;12250;50.956;4.746;2022-12-31T03:35:28;15.30;99.90
24049;DHT22;12250;50.956;4.746;2022-12-31T03:37:54;15.30;99.90
24049;DHT22;12250;50.956;4.746;2022-12-31T03:40:22;15.30;99.90
24049;DHT22;12250;50.956;4.746;2022-12-31T03:42:48;15.40;99.90
24049;DHT22;12250;50.956;4.746;2022-12-31T03:45:14;15.40;99.90
24049;DHT22;12250;50.956;4.746;2022-12-31T03:47:40;15.50;99.90
24049;DHT22;12250;50.956;4.746;2022-12-31T03:50:07;15.50;99.90
24049;DHT22;12250;50.956;4.746;2022-12-31T03:52:33;15.50;99.90
24049;DHT22;12250;50.956;4.746;2022-12-31T03:54:59;15.50;99.90
24049;DHT22;12250;50.956;4.746;2022-12-31T03:57:27;15.50;99.90
24049;DHT22;12250;50.956;4.746;2022-12-31T03:59:53;15.60;99.90
24049;DHT22;12250;50.956;4.746;2022-12-31T04:02:19;15.60;99.90
24049;DHT22;12250;50.956;4.746;2022-12-31T04:04:44;15.70;99.90
24049;DHT22;12250;50.956;4.746;2022-12-31T04:07:10;15.80;99.90
24049;DHT22;12250;50.956;4.746;2022-12-31T04:09:36;15.90;99.90
24049;DHT22;12250;50.956;4.746;2022-12-31T04:12:01;15.90;99.90
24049;DHT22;12250;50.956;4.746;2022-12-31T04:14:27;16.10;99.90
24049;DHT22;12250;50.956;4.746;2022-12-31T04:16:53;16.20;99.90
24049;DHT22;12250;50.956;4.746;2022-12-31T04:19:18;16.30;99.90
24049;DHT22;12250;50.956;4.746;2022-12-31T04:21:44;16.30;99.90
24049;DHT22;12250;50.956;4.746;2022-12-31T04:24:10;16.30;99.90
24049;DHT22;12250;50.956;4.746;2022-12-31T04:26:36;16.30;99.90
24049;DHT22;12250;50.956;4.746;2022-12-31T04:29:03;16.30;99.90
24049;DHT22;12250;50.956;4.746;2022-12-31T04:31:29;16.30;99.90
24049;DHT22;12250;50.956;4.746;2022-12-31T04:33:54;16.30;99.90
24049;DHT22;12250;50.956;4.746;2022-12-31T04:36:20;16.30;99.90
24049;DHT22;12250;50.956;4.746;2022-12-31T04:38:46;16.50;99.90
24049;DHT22;12250;50.956;4.746;2022-12-31T04:41:11;16.50;99.90
24049;DHT22;12250;50.956;4.746;2022-12-31T04:43:48;16.50;99.90
24049;DHT22;12250;50.956;4.746;2022-12-31T04:46:16;16.50;99.90
24049;DHT22;12250;50.956;4.746;2022-12-31T04:48:42;16.40;99.90
24049;DHT22;12250;50.956;4.746;2022-12-31T04:51:08;16.20;99.90
24049;DHT22;12250;50.956;4.746;2022-12-31T04:53:33;16.10;99.90
24049;DHT22;12250;50.956;4.746;2022-12-31T04:55:59;16.10;99.90
24049;DHT22;12250;50.956;4.746;2022-12-31T04:58:25;16.10;99.90
24049;DHT22;12250;50.956;4.746;2022-12-31T05:00:51;16.10;99.90
24049;DHT22;12250;50.956;4.746;2022-12-31T05:03:20;16.00;99.90
24049;DHT22;12250;50.956;4.746;2022-12-31T05:05:46;15.90;99.90
24049;DHT22;12250;50.956;4.746;2022-12-31T05:08:12;15.90;99.90
24049;DHT22;12250;50.956;4.746;2022-12-31T05:10:46;16.00;99.90
24049;DHT22;12250;50.956;4.746;2022-12-31T05:13:12;16.10;99.90
24049;DHT22;12250;50.956;4.746;2022-12-31T05:15:39;16.20;99.90
24049;DHT22;12250;50.956;4.746;2022-12-31T05:18:05;16.30;99.90
24049;DHT22;12250;50.956;4.746;2022-12-31T05:20:31;16.40;99.90
24049;DHT22;12250;50.956;4.746;2022-12-31T05:22:57;16.40;99.90
24049;DHT22;12250;50.956;4.746;2022-12-31T05:25:23;16.40;99.90
24049;DHT22;12250;50.956;4.746;2022-12-31T05:27:48;16.50;99.90
24049;DHT22;12250;50.956;4.746;2022-12-31T05:30:14;16.50;99.90
24049;DHT22;12250;50.956;4.746;2022-12-31T05:32:40;16.60;99.90
24049;DHT22;12250;50.956;4.746;2022-12-31T05:35:06;16.60;99.90
24049;DHT22;12250;50.956;4.746;2022-12-31T05:37:33;16.70;99.90
24049;DHT22;12250;50.956;4.746;2022-12-31T05:39:58;16.60;99.90
24049;DHT22;12250;50.956;4.746;2022-12-31T05:42:24;16.60;99.90
24049;DHT22;12250;50.956;4.746;2022-12-31T05:44:50;16.50;99.90
24049;DHT22;12250;50.956;4.746;2022-12-31T05:47:16;16.40;99.90
24049;DHT22;12250;50.956;4.746;2022-12-31T05:49:42;16.40;99.90
24049;DHT22;12250;50.956;4.746;2022-12-31T05:52:08;16.40;99.90
24049;DHT22;12250;50.956;4.746;2022-12-31T05:54:34;16.40;99.90
24049;DHT22;12250;50.956;4.746;2022-12-31T05:57:01;16.50;99.90
24049;DHT22;12250;50.956;4.746;2022-12-31T05:59:27;16.40;99.90
24049;DHT22;12250;50.956;4.746;2022-12-31T06:01:53;16.50;99.90
24049;DHT22;12250;50.956;4.746;2022-12-31T06:04:19;16.40;99.90
24049;DHT22;12250;50.956;4.746;2022-12-31T06:06:44;16.50;99.90
24049;DHT22;12250;50.956;4.746;2022-12-31T06:09:10;16.50;99.90
24049;DHT22;12250;50.956;4.746;2022-12-31T06:11:35;16.60;99.90
24049;DHT22;12250;50.956;4.746;2022-12-31T06:14:02;16.60;99.90
24049;DHT22;12250;50.956;4.746;2022-12-31T06:16:27;16.70;99.90
24049;DHT22;12250;50.956;4.746;2022-12-31T06:18:53;16.60;99.90
24049;DHT22;12250;50.956;4.746;2022-12-31T06:21:20;16.50;99.90
24049;DHT22;12250;50.956;4.746;2022-12-31T06:23:46;16.50;99.90
24049;DHT22;12250;50.956;4.746;2022-12-31T06:26:12;16.60;99.90
24049;DHT22;12250;50.956;4.746;2022-12-31T06:28:38;16.60;99.90
24049;DHT22;12250;50.956;4.746;2022-12-31T06:31:06;16.50;99.90
24049;DHT22;12250;50.956;4.746;2022-12-31T06:33:33;16.50;99.90
24049;DHT22;12250;50.956;4.746;2022-12-31T06:36:01;16.50;99.90
24049;DHT22;12250;50.956;4.746;2022-12-31T06:38:29;16.50;99.90
24049;DHT22;12250;50.956;4.746;2022-12-31T06:40:55;16.50;99.90
24049;DHT22;12250;50.956;4.746;2022-12-31T06:43:22;16.60;99.90
24049;DHT22;12250;50.956;4.746;2022-12-31T06:45:47;16.60;99.90
24049;DHT22;12250;50.956;4.746;2022-12-31T06:48:14;16.60;99.90
24049;DHT22;12250;50.956;4.746;2022-12-31T06:50:40;16.70;99.90
24049;DHT22;12250;50.956;4.746;2022-12-31T06:53:06;16.80;99.90
24049;DHT22;12250;50.956;4.746;2022-12-31T06:55:32;16.80;99.90
24049;DHT22;12250;50.956;4.746;2022-12-31T06:57:58;16.90;99.90
24049;DHT22;12250;50.956;4.746;2022-12-31T07:00:24;16.90;99.90
24049;DHT22;12250;50.956;4.746;2022-12-31T07:05:57;17.00;99.90
24049;DHT22;12250;50.956;4.746;2022-12-31T07:13:50;17.10;99.90
24049;DHT22;12250;50.956;4.746;2022-12-31T07:22:01;16.90;99.90
24049;DHT22;12250;50.956;4.746;2022-12-31T07:24:27;16.90;99.90
24049;DHT22;12250;50.956;4.746;2022-12-31T07:27:07;16.80;99.90
24049;DHT22;12250;50.956;4.746;2022-12-31T07:30:08;16.80;99.90
24049;DHT22;12250;50.956;4.746;2022-12-31T07:44:06;16.30;99.90
24049;DHT22;12250;50.956;4.746;2022-12-31T07:46:40;16.30;99.90
24049;DHT22;12250;50.956;4.746;2022-12-31T07:49:13;16.40;99.90
24049;DHT22;12250;50.956;4.746;2022-12-31T07:51:39;16.40;99.90
24049;DHT22;12250;50.956;4.746;2022-12-31T07:54:05;16.40;99.90
24049;DHT22;12250;50.956;4.746;2022-12-31T07:56:31;16.50;99.90
24049;DHT22;12250;50.956;4.746;2022-12-31T08:01:50;16.60;99.90
24049;DHT22;12250;50.956;4.746;2022-12-31T08:04:28;16.60;99.90
24049;DHT22;12250;50.956;4.746;2022-12-31T08:09:57;16.10;99.90
24049;DHT22;12250;50.956;4.746;2022-12-31T08:12:31;16.00;99.90
24049;DHT22;12250;50.956;4.746;2022-12-31T08:14:57;15.90;99.90
24049;DHT22;12250;50.956;4.746;2022-12-31T08:17:23;15.90;99.90
24049;DHT22;12250;50.956;4.746;2022-12-31T08:19:49;16.00;99.90
24049;DHT22;12250;50.956;4.746;2022-12-31T08:25:24;15.90;99.90
24049;DHT22;12250;50.956;4.746;2022-12-31T08:31:00;16.10;99.90
24049;DHT22;12250;50.956;4.746;2022-12-31T08:33:31;16.00;99.90
24049;DHT22;12250;50.956;4.746;2022-12-31T08:36:16;16.10;99.90
24049;DHT22;12250;50.956;4.746;2022-12-31T08:39:02;16.10;99.90
24049;DHT22;12250;50.956;4.746;2022-12-31T08:41:45;16.20;99.90
24049;DHT22;12250;50.956;4.746;2022-12-31T08:44:35;16.30;99.90
24049;DHT22;12250;50.956;4.746;2022-12-31T08:49:47;16.40;99.90
24049;DHT22;12250;50.956;4.746;2022-12-31T08:52:17;16.60;99.90
24049;DHT22;12250;50.956;4.746;2022-12-31T08:54:44;16.80;99.90
24049;DHT22;12250;50.956;4.746;2022-12-31T08:57:27;16.90;99.90
24049;DHT22;12250;50.956;4.746;2022-12-31T09:00:15;17.00;99.90
24049;DHT22;12250;50.956;4.746;2022-12-31T09:02:50;17.10;99.90
24049;DHT22;12250;50.956;4.746;2022-12-31T09:05:56;17.20;99.90
24049;DHT22;12250;50.956;4.746;2022-12-31T09:19:44;17.40;99.90
24049;DHT22;12250;50.956;4.746;2022-12-31T09:22:10;17.50;99.90
24049;DHT22;12250;50.956;4.746;2022-12-31T09:24:36;17.50;99.90
24049;DHT22;12250;50.956;4.746;2022-12-31T09:27:20;17.60;99.90
24049;DHT22;12250;50.956;4.746;2022-12-31T09:30:04;17.60;99.90
24049;DHT22;12250;50.956;4.746;2022-12-31T09:33:02;17.70;99.90
24049;DHT22;12250;50.956;4.746;2022-12-31T09:36:12;17.70;99.90
24049;DHT22;12250;50.956;4.746;2022-12-31T09:57:23;17.90;99.90
24049;DHT22;12250;50.956;4.746;2022-12-31T10:00:23;18.00;99.90
24049;DHT22;12250;50.956;4.746;2022-12-31T10:23:30;18.00;99.90
24049;DHT22;12250;50.956;4.746;2022-12-31T10:26:46;18.10;99.90
24049;DHT22;12250;50.956;4.746;2022-12-31T10:34:33;18.10;99.90
24049;DHT22;12250;50.956;4.746;2022-12-31T10:37:14;18.20;99.90
24049;DHT22;12250;50.956;4.746;2022-12-31T10:48:26;18.20;99.90
24049;DHT22;12250;50.956;4.746;2022-12-31T12:02:42;17.40;99.90
24049;DHT22;12250;50.956;4.746;2022-12-31T12:05:11;17.40;99.90
24049;DHT22;12250;50.956;4.746;2022-12-31T12:07:38;17.60;99.90
24049;DHT22;12250;50.956;4.746;2022-12-31T12:12:46;17.80;99.90
24049;DHT22;12250;50.956;4.746;2022-12-31T12:15:26;17.90;99.90
24049;DHT22;12250;50.956;4.746;2022-12-31T12:17:55;18.00;99.90
24049;DHT22;12250;50.956;4.746;2022-12-31T12:20:30;18.10;99.90
24049;DHT22;12250;50.956;4.746;2022-12-31T12:23:00;18.10;99.90
24049;DHT22;12250;50.956;4.746;2022-12-31T12:25:36;18.20;99.90
24049;DHT22;12250;50.956;4.746;2022-12-31T12:28:42;18.40;99.90
24049;DHT22;12250;50.956;4.746;2022-12-31T12:31:19;18.60;99.90
24049;DHT22;12250;50.956;4.746;2022-12-31T12:33:46;18.70;99.90
24049;DHT22;12250;50.956;4.746;2022-12-31T12:36:14;18.70;99.90
24049;DHT22;12250;50.956;4.746;2022-12-31T12:38:41;18.70;99.90
24049;DHT22;12250;50.956;4.746;2022-12-31T12:41:16;18.70;99.90
24049;DHT22;12250;50.956;4.746;2022-12-31T12:43:42;18.40;99.90
24049;DHT22;12250;50.956;4.746;2022-12-31T12:46:26;18.00;99.90
24049;DHT22;12250;50.956;4.746;2022-12-31T12:48:55;17.80;99.90
24049;DHT22;12250;50.956;4.746;2022-12-31T12:54:13;17.40;99.90
24049;DHT22;12250;50.956;4.746;2022-12-31T12:57:00;17.30;99.90
24049;DHT22;12250;50.956;4.746;2022-12-31T13:00:16;17.30;99.90
24049;DHT22;12250;50.956;4.746;2022-12-31T13:02:28;17.30;99.90
24049;DHT22;12250;50.956;4.746;2022-12-31T13:05:07;17.30;99.90
24049;DHT22;12250;50.956;4.746;2022-12-31T13:16:41;17.30;99.90
24049;DHT22;12250;50.956;4.746;2022-12-31T13:19:14;17.30;99.90
24049;DHT22;12250;50.956;4.746;2022-12-31T13:22:00;17.40;99.90
24049;DHT22;12250;50.956;4.746;2022-12-31T13:24:48;17.50;99.90
24049;DHT22;12250;50.956;4.746;2022-12-31T13:27:39;17.60;99.90
24049;DHT22;12250;50.956;4.746;2022-12-31T13:30:32;17.70;99.90
24049;DHT22;12250;50.956;4.746;2022-12-31T13:33:03;17.60;99.90
24049;DHT22;12250;50.956;4.746;2022-12-31T13:38:09;17.70;99.90
24049;DHT22;12250;50.956;4.746;2022-12-31T13:40:46;17.80;99.90
24049;DHT22;12250;50.956;4.746;2022-12-31T13:43:33;17.70;99.90
24049;DHT22;12250;50.956;4.746;2022-12-31T13:48:52;17.80;99.90
24049;DHT22;12250;50.956;4.746;2022-12-31T13:54:43;17.80;99.90
24049;DHT22;12250;50.956;4.746;2022-12-31T13:57:52;17.70;99.90
24049;DHT22;12250;50.956;4.746;2022-12-31T14:00:24;17.70;99.90
24049;DHT22;12250;50.956;4.746;2022-12-31T14:08:30;17.70;99.90
24049;DHT22;12250;50.956;4.746;2022-12-31T14:16:40;17.70;99.90
24049;DHT22;12250;50.956;4.746;2022-12-31T14:19:20;17.70;99.90
24049;DHT22;12250;50.956;4.746;2022-12-31T14:22:12;17.60;99.90
24049;DHT22;12250;50.956;4.746;2022-12-31T14:24:42;17.60;99.90
24049;DHT22;12250;50.956;4.746;2022-12-31T14:29:46;17.50;99.90
24049;DHT22;12250;50.956;4.746;2022-12-31T14:43:38;17.30;99.90
24049;DHT22;12250;50.956;4.746;2022-12-31T14:46:37;17.30;99.90
24049;DHT22;12250;50.956;4.746;2022-12-31T14:54:41;17.20;99.90
24049;DHT22;12250;50.956;4.746;2022-12-31T14:57:21;17.10;99.90
24049;DHT22;12250;50.956;4.746;2022-12-31T14:59:56;16.90;99.90
24049;DHT22;12250;50.956;4.746;2022-12-31T15:02:28;16.70;99.90
24049;DHT22;12250;50.956;4.746;2022-12-31T15:18:26;16.50;99.90
24049;DHT22;12250;50.956;4.746;2022-12-31T15:23:45;16.50;99.90
24049;DHT22;12250;50.956;4.746;2022-12-31T15:26:28;16.70;99.90
24049;DHT22;12250;50.956;4.746;2022-12-31T15:29:01;16.70;99.90
24049;DHT22;12250;50.956;4.746;2022-12-31T15:31:28;16.80;99.90
24049;DHT22;12250;50.956;4.746;2022-12-31T15:33:59;16.80;99.90
24049;DHT22;12250;50.956;4.746;2022-12-31T15:36:32;16.70;99.90
24049;DHT22;12250;50.956;4.746;2022-12-31T15:41:42;16.60;99.90
24049;DHT22;12250;50.956;4.746;2022-12-31T15:47:00;16.60;99.90
24049;DHT22;12250;50.956;4.746;2022-12-31T15:49:31;16.60;99.90
24049;DHT22;12250;50.956;4.746;2022-12-31T15:52:03;16.40;99.90
24049;DHT22;12250;50.956;4.746;2022-12-31T15:54:39;16.40;99.90
24049;DHT22;12250;50.956;4.746;2022-12-31T15:57:18;16.30;99.90
24049;DHT22;12250;50.956;4.746;2022-12-31T15:59:44;16.20;99.90
24049;DHT22;12250;50.956;4.746;2022-12-31T16:02:36;16.20;99.90
24049;DHT22;12250;50.956;4.746;2022-12-31T16:05:20;16.10;99.90
24049;DHT22;12250;50.956;4.746;2022-12-31T16:07:46;16.00;99.90
24049;DHT22;12250;50.956;4.746;2022-12-31T16:10:20;16.00;99.90
24049;DHT22;12250;50.956;4.746;2022-12-31T16:12:47;15.90;99.90
24049;DHT22;12250;50.956;4.746;2022-12-31T16:15:21;15.90;99.90
24049;DHT22;12250;50.956;4.746;2022-12-31T16:18:00;16.00;99.90
24049;DHT22;12250;50.956;4.746;2022-12-31T16:20:28;16.10;99.90
24049;DHT22;12250;50.956;4.746;2022-12-31T16:22:55;16.10;99.90
24049;DHT22;12250;50.956;4.746;2022-12-31T16:25:28;16.10;99.90
24049;DHT22;12250;50.956;4.746;2022-12-31T16:27:54;16.10;99.90
24049;DHT22;12250;50.956;4.746;2022-12-31T16:30:31;16.10;99.90
24049;DHT22;12250;50.956;4.746;2022-12-31T16:33:03;16.20;99.90
24049;DHT22;12250;50.956;4.746;2022-12-31T16:35:35;16.20;99.90
24049;DHT22;12250;50.956;4.746;2022-12-31T16:38:07;16.20;99.90
24049;DHT22;12250;50.956;4.746;2022-12-31T16:40:34;16.10;99.90
24049;DHT22;12250;50.956;4.746;2022-12-31T16:43:00;16.00;99.90
24049;DHT22;12250;50.956;4.746;2022-12-31T16:45:33;15.90;99.90
24049;DHT22;12250;50.956;4.746;2022-12-31T16:48:14;15.90;99.90
24049;DHT22;12250;50.956;4.746;2022-12-31T16:50:52;15.80;99.90
24049;DHT22;12250;50.956;4.746;2022-12-31T16:53:21;15.80;99.90
24049;DHT22;12250;50.956;4.746;2022-12-31T16:55:53;15.80;99.90
24049;DHT22;12250;50.956;4.746;2022-12-31T16:58:29;15.80;99.90
24049;DHT22;12250;50.956;4.746;2022-12-31T17:01:22;15.80;99.90
24049;DHT22;12250;50.956;4.746;2022-12-31T17:03:50;15.70;99.90
24049;DHT22;12250;50.956;4.746;2022-12-31T17:06:18;15.80;99.90
24049;DHT22;12250;50.956;4.746;2022-12-31T17:11:25;15.70;99.90
24049;DHT22;12250;50.956;4.746;2022-12-31T17:13:56;15.70;99.90
24049;DHT22;12250;50.956;4.746;2022-12-31T17:16:22;15.60;99.90
24049;DHT22;12250;50.956;4.746;2022-12-31T17:18:49;15.70;99.90
24049;DHT22;12250;50.956;4.746;2022-12-31T17:21:16;15.80;99.90
24049;DHT22;12250;50.956;4.746;2022-12-31T17:23:42;15.80;99.90
24049;DHT22;12250;50.956;4.746;2022-12-31T17:26:14;15.80;99.90
24049;DHT22;12250;50.956;4.746;2022-12-31T17:28:49;15.80;99.90
24049;DHT22;12250;50.956;4.746;2022-12-31T17:39:21;15.60;99.90
24049;DHT22;12250;50.956;4.746;2022-12-31T17:41:50;15.60;99.90
24049;DHT22;12250;50.956;4.746;2022-12-31T17:44:21;15.70;99.90
24049;DHT22;12250;50.956;4.746;2022-12-31T17:46:49;15.70;99.90
24049;DHT22;12250;50.956;4.746;2022-12-31T17:49:15;15.70;99.90
24049;DHT22;12250;50.956;4.746;2022-12-31T17:51:40;15.70;99.90
24049;DHT22;12250;50.956;4.746;2022-12-31T17:54:16;15.70;99.90
24049;DHT22;12250;50.956;4.746;2022-12-31T17:56:42;15.70;99.90
24049;DHT22;12250;50.956;4.746;2022-12-31T17:59:14;15.60;99.90
24049;DHT22;12250;50.956;4.746;2022-12-31T18:01:41;15.70;99.90
24049;DHT22;12250;50.956;4.746;2022-12-31T18:04:14;15.80;99.90
24049;DHT22;12250;50.956;4.746;2022-12-31T18:06:40;15.80;99.90
24049;DHT22;12250;50.956;4.746;2022-12-31T18:09:06;15.80;99.90
24049;DHT22;12250;50.956;4.746;2022-12-31T18:11:33;15.80;99.90
24049;DHT22;12250;50.956;4.746;2022-12-31T18:13:59;15.70;99.90
24049;DHT22;12250;50.956;4.746;2022-12-31T18:16:25;15.70;99.90
24049;DHT22;12250;50.956;4.746;2022-12-31T18:18:50;15.80;99.90
24049;DHT22;12250;50.956;4.746;2022-12-31T18:21:28;15.70;99.90
24049;DHT22;12250;50.956;4.746;2022-12-31T18:23:56;15.80;99.90
24049;DHT22;12250;50.956;4.746;2022-12-31T18:26:24;15.90;99.90
24049;DHT22;12250;50.956;4.746;2022-12-31T18:28:50;15.80;99.90
24049;DHT22;12250;50.956;4.746;2022-12-31T18:31:19;15.80;99.90
24049;DHT22;12250;50.956;4.746;2022-12-31T18:33:45;15.80;99.90
24049;DHT22;12250;50.956;4.746;2022-12-31T18:36:15;15.80;99.90
24049;DHT22;12250;50.956;4.746;2022-12-31T18:38:41;15.70;99.90
24049;DHT22;12250;50.956;4.746;2022-12-31T18:41:20;15.60;99.90
24049;DHT22;12250;50.956;4.746;2022-12-31T18:43:47;15.60;99.90
24049;DHT22;12250;50.956;4.746;2022-12-31T18:46:15;15.70;99.90
24049;DHT22;12250;50.956;4.746;2022-12-31T18:48:40;15.80;99.90
24049;DHT22;12250;50.956;4.746;2022-12-31T18:51:17;15.80;99.90
24049;DHT22;12250;50.956;4.746;2022-12-31T18:53:43;15.90;99.90
24049;DHT22;12250;50.956;4.746;2022-12-31T18:56:11;15.80;99.90
24049;DHT22;12250;50.956;4.746;2022-12-31T18:58:37;15.90;99.90
24049;DHT22;12250;50.956;4.746;2022-12-31T19:01:03;15.90;99.90
24049;DHT22;12250;50.956;4.746;2022-12-31T19:03:29;15.90;99.90
24049;DHT22;12250;50.956;4.746;2022-12-31T19:05:55;15.90;99.90
24049;DHT22;12250;50.956;4.746;2022-12-31T19:08:21;15.90;99.90
24049;DHT22;12250;50.956;4.746;2022-12-31T19:10:50;15.90;99.90
24049;DHT22;12250;50.956;4.746;2022-12-31T19:13:17;15.90;99.90
24049;DHT22;12250;50.956;4.746;2022-12-31T19:15:49;16.00;99.90
24049;DHT22;12250;50.956;4.746;2022-12-31T19:18:15;16.00;99.90
24049;DHT22;12250;50.956;4.746;2022-12-31T19:20:41;15.90;99.90
24049;DHT22;12250;50.956;4.746;2022-12-31T19:23:15;16.00;99.90
24049;DHT22;12250;50.956;4.746;2022-12-31T19:25:42;16.00;99.90
24049;DHT22;12250;50.956;4.746;2022-12-31T19:28:15;16.00;99.90
24049;DHT22;12250;50.956;4.746;2022-12-31T19:30:41;16.00;99.90
24049;DHT22;12250;50.956;4.746;2022-12-31T19:33:07;16.00;99.90
24049;DHT22;12250;50.956;4.746;2022-12-31T19:35:33;16.10;99.90
24049;DHT22;12250;50.956;4.746;2022-12-31T19:37:58;16.10;99.90
24049;DHT22;12250;50.956;4.746;2022-12-31T19:40:27;16.10;99.90
24049;DHT22;12250;50.956;4.746;2022-12-31T19:42:53;16.10;99.90
24049;DHT22;12250;50.956;4.746;2022-12-31T19:45:25;16.10;99.90
24049;DHT22;12250;50.956;4.746;2022-12-31T19:47:52;16.10;99.90
24049;DHT22;12250;50.956;4.746;2022-12-31T19:50:21;16.10;99.90
24049;DHT22;12250;50.956;4.746;2022-12-31T19:52:48;16.20;99.90
24049;DHT22;12250;50.956;4.746;2022-12-31T19:55:16;16.20;99.90
24049;DHT22;12250;50.956;4.746;2022-12-31T19:57:43;16.10;99.90
24049;DHT22;12250;50.956;4.746;2022-12-31T20:00:10;16.10;99.90
24049;DHT22;12250;50.956;4.746;2022-12-31T20:02:38;16.00;99.90
24049;DHT22;12250;50.956;4.746;2022-12-31T20:05:05;16.10;99.90
24049;DHT22;12250;50.956;4.746;2022-12-31T20:07:31;16.10;99.90
24049;DHT22;12250;50.956;4.746;2022-12-31T20:09:56;16.00;99.90
24049;DHT22;12250;50.956;4.746;2022-12-31T20:12:22;16.00;99.90
24049;DHT22;12250;50.956;4.746;2022-12-31T20:14:48;16.00;99.90
24049;DHT22;12250;50.956;4.746;2022-12-31T20:17:13;16.00;99.90
24049;DHT22;12250;50.956;4.746;2022-12-31T20:19:39;15.90;99.90
24049;DHT22;12250;50.956;4.746;2022-12-31T20:22:05;15.90;99.90
24049;DHT22;12250;50.956;4.746;2022-12-31T20:24:31;16.00;99.90
24049;DHT22;12250;50.956;4.746;2022-12-31T20:26:57;16.10;99.90
24049;DHT22;12250;50.956;4.746;2022-12-31T20:29:22;16.10;99.90
24049;DHT22;12250;50.956;4.746;2022-12-31T20:31:48;16.20;99.90
24049;DHT22;12250;50.956;4.746;2022-12-31T20:34:14;16.40;99.90
24049;DHT22;12250;50.956;4.746;2022-12-31T20:36:40;16.40;99.90
24049;DHT22;12250;50.956;4.746;2022-12-31T20:39:05;16.50;99.90